Time,TemperatureF,DewpointF,PressureIn,WindDirection,WindDirectionDegrees,WindSpeedMPH,WindSpeedGustMPH,Humidity,HourlyPrecipIn,Conditions,Clouds,dailyrainin,SoftwareType,DateUTC
2013-11-06 00:13:00,46.0,45.0,30.01,East,93,4.0,11.0,95,0.11,,,1.60,,2013-11-06 06:13:00,
2013-11-06 00:22:00,45.0,44.0,30.03,ESE,117,4.0,11.0,95,0.08,,,1.61,,2013-11-06 06:22:00,
2013-11-06 00:42:00,45.0,44.0,30.03,East,95,2.0,7.0,95,0.09,,,1.65,,2013-11-06 06:42:00,
2013-11-06 00:52:00,45.0,44.0,30.03,ESE,122,3.0,11.0,95,0.12,,,1.71,,2013-11-06 06:52:00,
2013-11-06 01:12:00,44.0,43.0,30.03,SW,232,3.0,10.0,95,0.13,,,1.73,,2013-11-06 07:12:00,
2013-11-06 01:22:00,44.0,43.0,30.03,East,101,3.0,11.0,95,0.12,,,1.73,,2013-11-06 07:22:00,
2013-11-06 01:42:00,44.0,43.0,30.06,ESE,117,2.0,5.0,95,0.08,,,1.73,,2013-11-06 07:42:00,
2013-11-06 01:52:00,44.0,43.0,30.06,ENE,69,3.0,8.0,95,0.02,,,1.73,,2013-11-06 07:52:00,
2013-11-06 02:12:00,43.0,41.0,30.08,West,276,4.0,10.0,94,0.00,,,1.73,,2013-11-06 08:12:00,
2013-11-06 02:22:00,43.0,41.0,30.08,East,81,1.0,6.0,94,0.00,,,1.73,,2013-11-06 08:22:00,
2013-11-06 02:42:00,43.0,41.0,30.08,West,280,2.0,6.0,94,0.00,,,1.73,,2013-11-06 08:42:00,
2013-11-06 02:52:00,43.0,41.0,30.06,South,172,2.0,7.0,94,0.00,,,1.73,,2013-11-06 08:52:00,
2013-11-06 03:12:00,42.0,40.0,30.09,ENE,58,2.0,7.0,94,0.00,,,1.73,,2013-11-06 09:12:00,
2013-11-06 03:22:00,42.0,40.0,30.09,ENE,69,3.0,14.0,93,0.00,,,1.73,,2013-11-06 09:22:00,
2013-11-06 03:43:00,42.0,40.0,30.09,SE,136,4.0,10.0,93,0.00,,,1.73,,2013-11-06 09:43:00,
2013-11-06 03:53:00,41.0,39.0,30.10,SE,128,3.0,9.0,93,0.00,,,1.73,,2013-11-06 09:53:00,
2013-11-06 04:23:00,41.0,39.0,30.12,SE,143,4.0,10.0,91,0.00,,,1.73,,2013-11-06 10:23:00,
2013-11-06 04:53:00,40.0,37.0,30.14,ENE,72,3.0,12.0,90,0.00,,,1.73,,2013-11-06 10:53:00,
2013-11-06 05:22:00,40.0,37.0,30.14,SE,143,3.0,9.0,90,0.00,,,1.73,,2013-11-06 11:22:00,
2013-11-06 05:42:00,39.0,36.0,30.15,ESE,117,3.0,9.0,90,0.00,,,1.73,,2013-11-06 11:42:00,
2013-11-06 05:52:00,39.0,36.0,30.16,WNW,283,3.0,8.0,90,0.00,,,1.73,,2013-11-06 11:52:00,
2013-11-06 06:22:00,39.0,36.0,30.19,ENE,67,2.0,10.0,89,0.00,,,1.73,,2013-11-06 12:22:00,
2013-11-06 06:42:00,39.0,36.0,30.20,SE,142,3.0,7.0,89,0.00,,,1.73,,2013-11-06 12:42:00,
2013-11-06 06:52:00,39.0,36.0,30.22,ESE,103,2.0,10.0,88,0.00,,,1.73,,2013-11-06 12:52:00,
2013-11-06 07:12:00,39.0,36.0,30.22,ENE,75,1.0,8.0,89,0.00,,,1.73,,2013-11-06 13:12:00,
2013-11-06 07:22:00,39.0,36.0,30.24,East,96,1.0,4.0,89,0.00,,,1.71,,2013-11-06 13:22:00,
2013-11-06 07:42:00,40.0,37.0,30.24,SE,124,2.0,7.0,89,0.00,,,1.71,,2013-11-06 13:42:00,
2013-11-06 07:52:00,40.0,37.0,30.24,East,86,3.0,9.0,88,0.00,,,1.71,,2013-11-06 13:52:00,
2013-11-06 08:22:00,40.0,36.0,30.26,East,80,2.0,10.0,86,0.00,,,1.68,,2013-11-06 14:22:00,
2013-11-06 08:42:00,41.0,37.0,30.27,East,101,3.0,7.0,86,0.00,,,1.68,,2013-11-06 14:42:00,
2013-11-06 08:52:00,41.0,37.0,30.26,East,80,3.0,7.0,85,0.00,,,1.68,,2013-11-06 14:52:00,
2013-11-06 09:01:00,41.0,37.0,30.26,East,80,3.0,7.0,85,0.00,,,1.68,,2013-11-06 15:01:00,
2013-11-06 09:11:00,41.0,37.0,30.26,East,80,3.0,7.0,85,0.00,,,1.68,,2013-11-06 15:11:00,
2013-11-06 09:22:00,41.0,37.0,30.26,East,80,3.0,7.0,85,0.00,,,1.68,,2013-11-06 15:22:00,
2013-11-06 09:33:00,41.0,37.0,30.26,East,80,3.0,7.0,85,0.00,,,1.68,,2013-11-06 15:33:00,
2013-11-06 10:12:00,43.0,38.0,30.30,ENE,58,3.0,8.0,83,0.00,,,1.66,,2013-11-06 16:12:00,
2013-11-06 10:23:00,43.0,38.0,30.30,ENE,58,3.0,8.0,83,0.00,,,1.66,,2013-11-06 16:23:00,
2013-11-06 10:42:00,43.0,38.0,30.30,SE,128,2.0,10.0,83,0.00,,,1.60,,2013-11-06 16:42:00,
2013-11-06 10:53:00,44.0,39.0,30.30,SE,128,2.0,10.0,81,0.00,,,1.60,,2013-11-06 16:53:00,
2013-11-06 11:13:00,44.0,38.0,30.30,SE,145,4.0,13.0,79,0.00,,,1.60,,2013-11-06 17:13:00,
2013-11-06 11:23:00,45.0,39.0,30.31,NE,39,1.0,6.0,80,0.00,,,1.60,,2013-11-06 17:23:00,
2013-11-06 11:43:00,45.0,39.0,30.31,NNW,333,3.0,8.0,78,0.00,,,1.55,,2013-11-06 17:43:00,
2013-11-06 11:52:00,46.0,39.0,30.31,South,180,3.0,8.0,77,0.00,,,1.55,,2013-11-06 17:52:00,
2013-11-06 12:12:00,47.0,39.0,30.31,ENE,64,3.0,8.0,75,0.00,,,1.55,,2013-11-06 18:12:00,
2013-11-06 12:22:00,47.0,39.0,30.31,SE,128,2.0,7.0,75,0.00,,,1.55,,2013-11-06 18:22:00,
2013-11-06 12:42:00,48.0,39.0,30.30,NNE,13,3.0,8.0,72,0.00,,,1.48,,2013-11-06 18:42:00,
2013-11-06 12:52:00,49.0,40.0,30.29,East,98,2.0,7.0,70,0.00,,,1.48,,2013-11-06 18:52:00,
2013-11-06 13:22:00,51.0,40.0,30.29,NE,49,2.0,7.0,65,0.00,,,1.48,,2013-11-06 19:22:00,
2013-11-06 13:42:00,52.0,40.0,30.29,East,80,3.0,9.0,63,0.00,,,1.45,,2013-11-06 19:42:00,
2013-11-06 13:52:00,52.0,39.0,30.29,SE,128,4.0,8.0,61,0.00,,,1.45,,2013-11-06 19:52:00,
2013-11-06 14:22:00,54.0,40.0,30.29,SE,134,4.0,8.0,58,0.00,,,1.45,,2013-11-06 20:22:00,
2013-11-06 14:52:00,54.0,38.0,30.29,NNW,327,3.0,10.0,54,0.00,,,1.42,,2013-11-06 20:52:00,
2013-11-06 15:12:00,54.0,36.0,30.29,SSW,193,4.0,9.0,51,0.00,,,1.42,,2013-11-06 21:12:00,
2013-11-06 15:22:00,54.0,38.0,30.30,SE,125,3.0,12.0,54,0.00,,,1.42,,2013-11-06 21:22:00,
2013-11-06 15:54:00,55.0,37.0,30.31,NNE,13,3.0,8.0,51,0.00,,,1.42,,2013-11-06 21:54:00,
2013-11-06 16:14:00,55.0,37.0,30.30,South,172,3.0,6.0,50,0.00,,,1.42,,2013-11-06 22:14:00,
2013-11-06 16:23:00,55.0,37.0,30.30,ESE,111,0.0,6.0,50,0.00,,,1.42,,2013-11-06 22:23:00,
2013-11-06 16:43:00,55.0,37.0,30.31,WSW,238,1.0,4.0,50,0.00,,,1.42,,2013-11-06 22:43:00,
2013-11-06 16:53:00,54.0,36.0,30.31,East,79,2.0,7.0,51,0.00,,,1.42,,2013-11-06 22:53:00,
2013-11-06 17:22:00,53.0,35.0,30.32,South,170,2.0,5.0,50,0.00,,,1.42,,2013-11-06 23:22:00,
2013-11-06 17:53:00,49.0,36.0,30.32,ENE,63,0.0,3.0,60,0.00,,,1.42,,2013-11-06 23:53:00,
2013-11-06 18:12:00,47.0,36.0,30.33,East,79,0.0,1.0,66,0.00,,,1.42,,2013-11-07 00:12:00,
2013-11-06 18:22:00,44.0,35.0,30.33,East,79,0.0,0.0,70,0.00,,,1.42,,2013-11-07 00:22:00,
2013-11-06 18:42:00,42.0,35.0,30.34,East,79,0.0,0.0,77,0.00,,,1.42,,2013-11-07 00:42:00,
2013-11-06 18:52:00,40.0,35.0,30.34,East,79,0.0,0.0,81,0.00,,,1.42,,2013-11-07 00:52:00,
2013-11-06 19:22:00,39.0,35.0,30.35,East,79,0.0,0.0,87,0.00,,,1.42,,2013-11-07 01:22:00,
2013-11-06 19:52:00,36.0,33.0,30.36,East,79,0.0,0.0,89,0.00,,,1.42,,2013-11-07 01:52:00,
2013-11-06 20:12:00,36.0,34.0,30.37,East,79,0.0,1.0,92,0.00,,,1.42,,2013-11-07 02:12:00,
2013-11-06 20:22:00,36.0,34.0,30.37,East,79,0.0,0.0,91,0.00,,,1.42,,2013-11-07 02:22:00,
2013-11-06 21:22:00,35.0,33.0,30.38,North,8,0.0,1.0,93,0.00,,,1.42,,2013-11-07 03:22:00,
2013-11-06 21:44:00,35.0,33.0,30.38,North,8,0.0,0.0,93,0.00,,,1.15,,2013-11-07 03:44:00,
2013-11-06 21:55:00,34.0,32.0,30.38,North,7,0.0,0.0,93,0.00,,,1.15,,2013-11-07 03:55:00,
2013-11-06 22:13:00,33.0,31.0,30.38,North,7,0.0,1.0,93,0.00,,,1.15,,2013-11-07 04:13:00,
2013-11-06 22:24:00,33.0,31.0,30.39,North,8,0.0,0.0,93,0.00,,,1.15,,2013-11-07 04:24:00,
2013-11-06 22:43:00,32.0,30.0,30.40,North,8,0.0,0.0,94,0.00,,,0.96,,2013-11-07 04:43:00,
2013-11-06 22:53:00,33.0,32.0,30.40,North,8,0.0,0.0,95,0.00,,,0.96,,2013-11-07 04:53:00,
2013-11-06 23:13:00,33.0,31.0,30.41,North,7,0.0,0.0,94,0.00,,,0.96,,2013-11-07 05:13:00,
2013-11-06 23:23:00,33.0,32.0,30.41,North,8,0.0,0.0,95,0.00,,,0.96,,2013-11-07 05:23:00,
2013-11-06 23:44:00,33.0,32.0,30.41,North,8,0.0,0.0,95,0.00,,,0.21,,2013-11-07 05:44:00,
2013-11-06 23:54:00,32.0,31.0,30.41,North,7,0.0,0.0,95,0.00,,,0.21,,2013-11-07 05:54:00,